sensor_id;sensor_type;location;lat;lon;timestamp;pressure;altitude;pressure_sealevel;temperature;humidity
5703;BME280;2876;51.738;10.050;2024-01-07T00:00:02;99130.81;;;2.57;100.00
5703;BME280;2876;51.738;10.050;2024-01-07T00:06:04;99133.63;;;2.56;99.60
5703;BME280;2876;51.738;10.050;2024-01-07T00:12:06;99133.00;;;2.62;99.28
5703;BME280;2876;51.738;10.050;2024-01-07T00:18:09;99140.28;;;2.60;98.42
5703;BME280;2876;51.738;10.050;2024-01-07T00:24:11;99146.41;;;2.60;98.35
5703;BME280;2876;51.738;10.050;2024-01-07T00:30:13;99151.09;;;2.48;98.80
5703;BME280;2876;51.738;10.050;2024-01-07T00:36:16;99157.16;;;2.41;98.83
5703;BME280;2876;51.738;10.050;2024-01-07T00:42:18;99155.72;;;2.11;99.20
5703;BME280;2876;51.738;10.050;2024-01-07T00:48:20;99165.59;;;2.26;99.16
5703;BME280;2876;51.738;10.050;2024-01-07T00:54:22;99175.53;;;2.24;99.39
5703;BME280;2876;51.738;10.050;2024-01-07T01:00:24;99177.53;;;2.13;99.42
5703;BME280;2876;51.738;10.050;2024-01-07T01:06:26;99196.81;;;2.05;99.59
5703;BME280;2876;51.738;10.050;2024-01-07T01:12:28;99200.91;;;2.17;99.13
5703;BME280;2876;51.738;10.050;2024-01-07T01:18:30;99209.72;;;2.08;99.19
5703;BME280;2876;51.738;10.050;2024-01-07T01:24:32;99208.25;;;2.23;98.12
5703;BME280;2876;51.738;10.050;2024-01-07T01:30:34;99228.56;;;2.05;98.18
5703;BME280;2876;51.738;10.050;2024-01-07T01:36:37;99240.03;;;1.86;98.83
5703;BME280;2876;51.738;10.050;2024-01-07T01:42:43;99238.78;;;1.90;98.39
5703;BME280;2876;51.738;10.050;2024-01-07T01:48:45;99247.69;;;1.89;99.31
5703;BME280;2876;51.738;10.050;2024-01-07T01:54:47;99245.69;;;2.01;98.86
5703;BME280;2876;51.738;10.050;2024-01-07T02:00:50;99252.00;;;2.18;98.31
5703;BME280;2876;51.738;10.050;2024-01-07T02:06:53;99253.25;;;1.86;98.99
5703;BME280;2876;51.738;10.050;2024-01-07T02:12:57;99257.00;;;1.93;98.52
5703;BME280;2876;51.738;10.050;2024-01-07T02:18:59;99259.25;;;1.88;98.38
5703;BME280;2876;51.738;10.050;2024-01-07T02:25:01;99267.03;;;1.90;97.76
5703;BME280;2876;51.738;10.050;2024-01-07T02:31:04;99267.41;;;1.95;97.12
5703;BME280;2876;51.738;10.050;2024-01-07T02:37:06;99273.06;;;1.82;96.91
5703;BME280;2876;51.738;10.050;2024-01-07T02:43:08;99279.56;;;1.88;97.26
5703;BME280;2876;51.738;10.050;2024-01-07T02:49:10;99293.50;;;1.80;96.91
5703;BME280;2876;51.738;10.050;2024-01-07T02:55:14;99296.16;;;1.80;96.28
5703;BME280;2876;51.738;10.050;2024-01-07T03:01:16;99299.09;;;1.67;96.80
5703;BME280;2876;51.738;10.050;2024-01-07T03:07:18;99311.84;;;1.91;95.32
5703;BME280;2876;51.738;10.050;2024-01-07T03:13:20;99318.34;;;1.60;95.47
5703;BME280;2876;51.738;10.050;2024-01-07T03:19:22;99317.09;;;1.54;94.63
5703;BME280;2876;51.738;10.050;2024-01-07T03:25:24;99332.28;;;1.42;95.82
5703;BME280;2876;51.738;10.050;2024-01-07T03:31:26;99341.31;;;1.40;97.03
5703;BME280;2876;51.738;10.050;2024-01-07T03:37:28;99334.50;;;1.37;97.17
5703;BME280;2876;51.738;10.050;2024-01-07T03:43:31;99349.94;;;1.32;95.18
5703;BME280;2876;51.738;10.050;2024-01-07T03:49:33;99353.56;;;1.21;95.36
5703;BME280;2876;51.738;10.050;2024-01-07T03:55:35;99353.56;;;1.02;95.89
5703;BME280;2876;51.738;10.050;2024-01-07T04:01:36;99357.84;;;1.03;95.10
5703;BME280;2876;51.738;10.050;2024-01-07T04:07:39;99367.31;;;0.96;94.75
5703;BME280;2876;51.738;10.050;2024-01-07T04:13:41;99376.19;;;0.85;94.86
5703;BME280;2876;51.738;10.050;2024-01-07T04:19:43;99377.00;;;0.76;94.54
5703;BME280;2876;51.738;10.050;2024-01-07T04:25:45;99379.94;;;0.73;95.33
5703;BME280;2876;51.738;10.050;2024-01-07T04:31:47;99392.56;;;0.79;94.81
5703;BME280;2876;51.738;10.050;2024-01-07T04:37:49;99406.72;;;0.68;94.48
5703;BME280;2876;51.738;10.050;2024-01-07T04:43:51;99411.91;;;0.49;94.62
5703;BME280;2876;51.738;10.050;2024-01-07T04:49:54;99420.03;;;0.67;93.42
5703;BME280;2876;51.738;10.050;2024-01-07T04:55:56;99421.03;;;0.35;93.53
5703;BME280;2876;51.738;10.050;2024-01-07T05:01:58;99427.38;;;0.23;93.22
5703;BME280;2876;51.738;10.050;2024-01-07T05:08:00;99433.59;;;0.22;94.01
5703;BME280;2876;51.738;10.050;2024-01-07T05:14:02;99452.56;;;0.37;93.72
5703;BME280;2876;51.738;10.050;2024-01-07T05:20:05;99459.63;;;0.36;94.40
5703;BME280;2876;51.738;10.050;2024-01-07T05:26:08;99458.53;;;0.39;93.36
5703;BME280;2876;51.738;10.050;2024-01-07T05:32:10;99470.53;;;0.53;92.11
5703;BME280;2876;51.738;10.050;2024-01-07T05:38:12;99471.66;;;0.29;91.72
5703;BME280;2876;51.738;10.050;2024-01-07T05:44:14;99491.06;;;0.18;91.86
5703;BME280;2876;51.738;10.050;2024-01-07T05:50:16;99497.25;;;0.17;92.22
5703;BME280;2876;51.738;10.050;2024-01-07T05:56:20;99500.19;;;0.14;92.80
5703;BME280;2876;51.738;10.050;2024-01-07T06:02:22;99514.44;;;0.12;92.58
5703;BME280;2876;51.738;10.050;2024-01-07T06:08:26;99519.03;;;0.10;92.69
5703;BME280;2876;51.738;10.050;2024-01-07T06:14:28;99525.56;;;0.36;91.06
5703;BME280;2876;51.738;10.050;2024-01-07T06:20:30;99537.22;;;0.34;91.10
5703;BME280;2876;51.738;10.050;2024-01-07T06:26:32;99541.84;;;0.20;90.39
5703;BME280;2876;51.738;10.050;2024-01-07T06:32:35;99555.34;;;0.06;91.28
5703;BME280;2876;51.738;10.050;2024-01-07T06:38:37;99570.13;;;-0.03;91.80
5703;BME280;2876;51.738;10.050;2024-01-07T06:44:39;99575.84;;;0.03;91.87
5703;BME280;2876;51.738;10.050;2024-01-07T06:50:41;99583.44;;;0.17;91.98
5703;BME280;2876;51.738;10.050;2024-01-07T06:56:43;99591.16;;;0.09;90.60
5703;BME280;2876;51.738;10.050;2024-01-07T07:02:45;99601.06;;;-0.16;91.53
5703;BME280;2876;51.738;10.050;2024-01-07T07:08:47;99614.47;;;-0.08;91.16
5703;BME280;2876;51.738;10.050;2024-01-07T07:14:49;99618.53;;;-0.04;90.45
5703;BME280;2876;51.738;10.050;2024-01-07T07:20:51;99622.38;;;-0.08;89.64
5703;BME280;2876;51.738;10.050;2024-01-07T07:26:53;99638.34;;;-0.20;87.85
5703;BME280;2876;51.738;10.050;2024-01-07T07:32:55;99660.16;;;-0.30;88.01
5703;BME280;2876;51.738;10.050;2024-01-07T07:38:57;99674.28;;;-0.19;87.16
5703;BME280;2876;51.738;10.050;2024-01-07T07:44:59;99687.84;;;-0.35;87.07
5703;BME280;2876;51.738;10.050;2024-01-07T07:51:02;99696.22;;;-0.53;86.38
5703;BME280;2876;51.738;10.050;2024-01-07T07:57:04;99701.84;;;-0.57;84.49
5703;BME280;2876;51.738;10.050;2024-01-07T08:03:06;99726.00;;;-0.74;85.91
5703;BME280;2876;51.738;10.050;2024-01-07T08:09:08;99745.75;;;-0.69;83.47
5703;BME280;2876;51.738;10.050;2024-01-07T08:15:10;99751.50;;;-0.75;83.59
5703;BME280;2876;51.738;10.050;2024-01-07T08:21:12;99755.31;;;-0.90;83.15
5703;BME280;2876;51.738;10.050;2024-01-07T08:27:14;99755.66;;;-0.95;82.92
5703;BME280;2876;51.738;10.050;2024-01-07T08:33:17;99780.81;;;-1.15;82.16
5703;BME280;2876;51.738;10.050;2024-01-07T08:39:19;99794.09;;;-1.16;80.31
5703;BME280;2876;51.738;10.050;2024-01-07T08:45:21;99800.66;;;-1.22;80.66
5703;BME280;2876;51.738;10.050;2024-01-07T08:51:24;99809.47;;;-1.23;81.39
5703;BME280;2876;51.738;10.050;2024-01-07T08:57:26;99802.13;;;-1.18;79.80
5703;BME280;2876;51.738;10.050;2024-01-07T09:03:28;99817.66;;;-1.39;79.85
5703;BME280;2876;51.738;10.050;2024-01-07T09:09:30;99832.50;;;-1.38;79.85
5703;BME280;2876;51.738;10.050;2024-01-07T09:15:32;99843.53;;;-1.33;79.69
5703;BME280;2876;51.738;10.050;2024-01-07T09:21:34;99845.06;;;-1.17;78.91
5703;BME280;2876;51.738;10.050;2024-01-07T09:27:36;99853.00;;;-1.06;76.94
5703;BME280;2876;51.738;10.050;2024-01-07T09:33:38;99867.81;;;-1.05;77.79
5703;BME280;2876;51.738;10.050;2024-01-07T09:39:41;99886.19;;;-1.16;77.20
5703;BME280;2876;51.738;10.050;2024-01-07T09:45:47;99905.97;;;-1.11;77.98
5703;BME280;2876;51.738;10.050;2024-01-07T09:51:55;99899.81;;;-0.98;77.34
5703;BME280;2876;51.738;10.050;2024-01-07T09:58:01;99894.38;;;-0.84;75.25
5703;BME280;2876;51.738;10.050;2024-01-07T10:04:03;99906.53;;;-0.59;75.93
5703;BME280;2876;51.738;10.050;2024-01-07T10:10:17;99915.69;;;-0.52;75.42
5703;BME280;2876;51.738;10.050;2024-01-07T10:16:19;99905.41;;;-0.44;74.33
5703;BME280;2876;51.738;10.050;2024-01-07T10:22:22;99912.00;;;-0.49;76.00
5703;BME280;2876;51.738;10.050;2024-01-07T10:28:24;99917.91;;;-0.35;75.98
5703;BME280;2876;51.738;10.050;2024-01-07T10:34:26;99909.72;;;-0.54;74.61
5703;BME280;2876;51.738;10.050;2024-01-07T10:40:31;99924.06;;;-0.58;75.26
5703;BME280;2876;51.738;10.050;2024-01-07T10:46:35;99913.78;;;-0.74;76.04
5703;BME280;2876;51.738;10.050;2024-01-07T10:52:40;99908.59;;;-1.11;76.32
5703;BME280;2876;51.738;10.050;2024-01-07T10:58:43;99934.56;;;-0.82;77.91
5703;BME280;2876;51.738;10.050;2024-01-07T11:11:18;99914.97;;;-1.02;76.85
5703;BME280;2876;51.738;10.050;2024-01-07T11:17:41;99925.88;;;-0.95;77.50
5703;BME280;2876;51.738;10.050;2024-01-07T11:23:48;99914.25;;;-0.80;77.18
5703;BME280;2876;51.738;10.050;2024-01-07T11:30:02;99917.72;;;-0.80;77.76
5703;BME280;2876;51.738;10.050;2024-01-07T11:36:06;99914.22;;;-0.56;77.35
5703;BME280;2876;51.738;10.050;2024-01-07T11:42:09;99919.03;;;-0.50;77.60
5703;BME280;2876;51.738;10.050;2024-01-07T11:48:11;99919.84;;;-0.26;77.86
5703;BME280;2876;51.738;10.050;2024-01-07T11:54:13;99925.34;;;-0.29;77.83
5703;BME280;2876;51.738;10.050;2024-01-07T12:00:16;99916.31;;;-0.48;76.83
5703;BME280;2876;51.738;10.050;2024-01-07T12:06:19;99918.09;;;-0.49;77.97
5703;BME280;2876;51.738;10.050;2024-01-07T12:12:21;99919.97;;;-0.27;77.95
5703;BME280;2876;51.738;10.050;2024-01-07T12:18:23;99914.03;;;-0.42;77.52
5703;BME280;2876;51.738;10.050;2024-01-07T12:24:28;99922.97;;;-0.56;78.48
5703;BME280;2876;51.738;10.050;2024-01-07T12:30:29;99920.56;;;-0.23;78.98
5703;BME280;2876;51.738;10.050;2024-01-07T12:36:33;99931.44;;;-0.28;77.48
5703;BME280;2876;51.738;10.050;2024-01-07T12:42:35;99928.94;;;-0.18;78.42
5703;BME280;2876;51.738;10.050;2024-01-07T12:48:39;99933.63;;;-0.22;77.44
5703;BME280;2876;51.738;10.050;2024-01-07T12:54:41;99937.31;;;-0.24;78.13
5703;BME280;2876;51.738;10.050;2024-01-07T13:00:43;99948.75;;;-0.13;76.97
5703;BME280;2876;51.738;10.050;2024-01-07T13:06:45;99955.28;;;-0.30;77.32
5703;BME280;2876;51.738;10.050;2024-01-07T13:12:48;99957.00;;;-0.17;77.57
5703;BME280;2876;51.738;10.050;2024-01-07T13:18:56;99963.69;;;-0.24;78.96
5703;BME280;2876;51.738;10.050;2024-01-07T13:24:58;99966.69;;;-0.53;79.09
5703;BME280;2876;51.738;10.050;2024-01-07T13:31:00;99971.47;;;-0.23;79.26
5703;BME280;2876;51.738;10.050;2024-01-07T13:37:02;99975.25;;;-0.38;80.13
5703;BME280;2876;51.738;10.050;2024-01-07T13:43:05;99977.19;;;-0.29;79.85
5703;BME280;2876;51.738;10.050;2024-01-07T13:49:07;99978.03;;;-0.29;80.21
5703;BME280;2876;51.738;10.050;2024-01-07T13:55:09;99984.50;;;-0.33;80.59
5703;BME280;2876;51.738;10.050;2024-01-07T14:01:12;99997.72;;;-0.21;81.70
5703;BME280;2876;51.738;10.050;2024-01-07T14:07:14;100003.06;;;-0.34;83.43
5703;BME280;2876;51.738;10.050;2024-01-07T14:13:16;100011.25;;;-0.26;84.46
5703;BME280;2876;51.738;10.050;2024-01-07T14:19:18;100009.78;;;-0.30;84.66
5703;BME280;2876;51.738;10.050;2024-01-07T14:25:21;100016.22;;;-0.34;85.49
5703;BME280;2876;51.738;10.050;2024-01-07T14:31:23;100022.91;;;-0.41;85.02
5703;BME280;2876;51.738;10.050;2024-01-07T14:37:25;100019.72;;;-0.58;85.76
5703;BME280;2876;51.738;10.050;2024-01-07T14:43:29;100028.84;;;-0.51;86.75
5703;BME280;2876;51.738;10.050;2024-01-07T14:49:31;100032.38;;;-0.39;86.21
5703;BME280;2876;51.738;10.050;2024-01-07T14:55:34;100040.44;;;-0.53;87.06
5703;BME280;2876;51.738;10.050;2024-01-07T15:01:36;100042.00;;;-0.51;87.48
5703;BME280;2876;51.738;10.050;2024-01-07T15:07:38;100050.38;;;-0.57;87.82
5703;BME280;2876;51.738;10.050;2024-01-07T15:13:40;100043.41;;;-0.34;87.53
5703;BME280;2876;51.738;10.050;2024-01-07T15:19:42;100045.22;;;-0.34;87.34
5703;BME280;2876;51.738;10.050;2024-01-07T15:25:44;100058.78;;;-0.52;87.29
5703;BME280;2876;51.738;10.050;2024-01-07T15:31:47;100053.75;;;-0.31;87.36
5703;BME280;2876;51.738;10.050;2024-01-07T15:37:49;100065.47;;;-0.35;87.55
5703;BME280;2876;51.738;10.050;2024-01-07T15:43:51;100065.13;;;-0.30;88.00
5703;BME280;2876;51.738;10.050;2024-01-07T15:49:53;100074.50;;;-0.26;88.04
5703;BME280;2876;51.738;10.050;2024-01-07T15:55:55;100082.78;;;-0.43;88.21
5703;BME280;2876;51.738;10.050;2024-01-07T16:01:57;100085.53;;;-0.45;89.37
5703;BME280;2876;51.738;10.050;2024-01-07T16:07:59;100087.22;;;-0.44;89.23
5703;BME280;2876;51.738;10.050;2024-01-07T16:14:01;100095.16;;;-0.33;88.25
5703;BME280;2876;51.738;10.050;2024-01-07T16:20:03;100094.00;;;-0.29;88.06
5703;BME280;2876;51.738;10.050;2024-01-07T16:26:05;100098.94;;;-0.24;88.10
5703;BME280;2876;51.738;10.050;2024-01-07T16:32:07;100097.59;;;-0.30;88.59
5703;BME280;2876;51.738;10.050;2024-01-07T16:38:10;100101.56;;;-0.24;88.52
5703;BME280;2876;51.738;10.050;2024-01-07T16:44:15;100104.19;;;-0.24;89.48
5703;BME280;2876;51.738;10.050;2024-01-07T16:50:17;100108.25;;;-0.31;89.92
5703;BME280;2876;51.738;10.050;2024-01-07T16:56:26;100110.53;;;-0.27;90.20
5703;BME280;2876;51.738;10.050;2024-01-07T17:02:28;100117.66;;;-0.16;89.92
5703;BME280;2876;51.738;10.050;2024-01-07T17:08:30;100115.56;;;-0.23;89.37
5703;BME280;2876;51.738;10.050;2024-01-07T17:14:32;100122.59;;;-0.11;89.50
5703;BME280;2876;51.738;10.050;2024-01-07T17:20:35;100131.38;;;-0.47;89.56
5703;BME280;2876;51.738;10.050;2024-01-07T17:26:39;100133.22;;;-0.37;88.67
5703;BME280;2876;51.738;10.050;2024-01-07T17:32:41;100135.13;;;-0.39;87.35
5703;BME280;2876;51.738;10.050;2024-01-07T17:38:43;100149.59;;;-0.44;87.35
5703;BME280;2876;51.738;10.050;2024-01-07T17:44:45;100148.97;;;-0.61;86.20
5703;BME280;2876;51.738;10.050;2024-01-07T17:50:49;100148.69;;;-0.69;84.47
5703;BME280;2876;51.738;10.050;2024-01-07T17:56:51;100162.28;;;-0.62;83.92
5703;BME280;2876;51.738;10.050;2024-01-07T18:02:53;100159.72;;;-0.64;85.30
5703;BME280;2876;51.738;10.050;2024-01-07T18:08:55;100167.53;;;-0.62;84.28
5703;BME280;2876;51.738;10.050;2024-01-07T18:14:57;100171.13;;;-0.63;84.67
5703;BME280;2876;51.738;10.050;2024-01-07T18:20:59;100171.66;;;-0.58;84.03
5703;BME280;2876;51.738;10.050;2024-01-07T18:27:01;100182.91;;;-0.69;83.90
5703;BME280;2876;51.738;10.050;2024-01-07T18:33:03;100187.78;;;-0.75;83.57
5703;BME280;2876;51.738;10.050;2024-01-07T18:39:05;100187.34;;;-0.69;82.70
5703;BME280;2876;51.738;10.050;2024-01-07T18:45:09;100184.19;;;-0.74;82.84
5703;BME280;2876;51.738;10.050;2024-01-07T18:51:11;100190.09;;;-0.71;81.55
5703;BME280;2876;51.738;10.050;2024-01-07T18:57:13;100199.16;;;-0.62;80.82
5703;BME280;2876;51.738;10.050;2024-01-07T19:03:16;100210.84;;;-0.79;79.84
5703;BME280;2876;51.738;10.050;2024-01-07T19:09:18;100196.81;;;-0.92;79.34
5703;BME280;2876;51.738;10.050;2024-01-07T19:15:21;100204.41;;;-0.75;78.51
5703;BME280;2876;51.738;10.050;2024-01-07T19:21:26;100210.31;;;-0.97;78.62
5703;BME280;2876;51.738;10.050;2024-01-07T19:27:28;100214.41;;;-0.93;78.65
5703;BME280;2876;51.738;10.050;2024-01-07T19:33:31;100208.63;;;-0.85;78.53
5703;BME280;2876;51.738;10.050;2024-01-07T19:39:33;100217.16;;;-0.69;77.33
5703;BME280;2876;51.738;10.050;2024-01-07T19:45:37;100218.63;;;-0.90;76.86
5703;BME280;2876;51.738;10.050;2024-01-07T19:51:41;100220.84;;;-0.84;77.87
5703;BME280;2876;51.738;10.050;2024-01-07T19:57:43;100223.25;;;-0.68;77.46
5703;BME280;2876;51.738;10.050;2024-01-07T20:03:45;100227.69;;;-0.69;77.05
5703;BME280;2876;51.738;10.050;2024-01-07T20:09:48;100242.22;;;-0.89;77.79
5703;BME280;2876;51.738;10.050;2024-01-07T20:15:50;100250.97;;;-0.75;78.50
5703;BME280;2876;51.738;10.050;2024-01-07T20:21:52;100247.03;;;-0.95;79.07
5703;BME280;2876;51.738;10.050;2024-01-07T20:27:54;100247.91;;;-0.95;80.14
5703;BME280;2876;51.738;10.050;2024-01-07T20:33:57;100252.31;;;-0.95;81.18
5703;BME280;2876;51.738;10.050;2024-01-07T20:39:59;100249.78;;;-0.97;82.14
5703;BME280;2876;51.738;10.050;2024-01-07T20:46:01;100243.66;;;-1.10;83.67
5703;BME280;2876;51.738;10.050;2024-01-07T20:52:04;100255.88;;;-1.09;84.04
5703;BME280;2876;51.738;10.050;2024-01-07T20:58:06;100249.22;;;-1.15;85.19
5703;BME280;2876;51.738;10.050;2024-01-07T21:04:08;100258.31;;;-0.93;84.98
5703;BME280;2876;51.738;10.050;2024-01-07T21:10:10;100260.81;;;-1.05;85.87
5703;BME280;2876;51.738;10.050;2024-01-07T21:16:12;100261.13;;;-1.09;86.38
5703;BME280;2876;51.738;10.050;2024-01-07T21:22:15;100248.59;;;-1.18;87.01
5703;BME280;2876;51.738;10.050;2024-01-07T21:28:19;100250.09;;;-1.02;87.50
5703;BME280;2876;51.738;10.050;2024-01-07T21:34:21;100256.13;;;-0.99;87.69
5703;BME280;2876;51.738;10.050;2024-01-07T21:40:23;100261.88;;;-1.07;87.37
5703;BME280;2876;51.738;10.050;2024-01-07T21:46:25;100261.44;;;-1.14;88.28
5703;BME280;2876;51.738;10.050;2024-01-07T21:52:30;100255.56;;;-1.17;87.94
5703;BME280;2876;51.738;10.050;2024-01-07T21:58:33;100259.88;;;-1.16;88.45
5703;BME280;2876;51.738;10.050;2024-01-07T22:04:36;100256.97;;;-0.99;88.39
5703;BME280;2876;51.738;10.050;2024-01-07T22:10:38;100262.31;;;-1.00;88.29
5703;BME280;2876;51.738;10.050;2024-01-07T22:16:41;100263.22;;;-1.27;88.57
5703;BME280;2876;51.738;10.050;2024-01-07T22:22:43;100267.56;;;-1.13;88.48
5703;BME280;2876;51.738;10.050;2024-01-07T22:28:45;100285.16;;;-1.01;89.27
5703;BME280;2876;51.738;10.050;2024-01-07T22:34:47;100281.03;;;-1.18;89.96
5703;BME280;2876;51.738;10.050;2024-01-07T22:40:49;100284.69;;;-1.20;89.94
5703;BME280;2876;51.738;10.050;2024-01-07T22:46:52;100288.06;;;-1.18;90.83
5703;BME280;2876;51.738;10.050;2024-01-07T22:52:55;100288.13;;;-1.33;91.68
5703;BME280;2876;51.738;10.050;2024-01-07T22:58:57;100285.84;;;-1.24;91.97
5703;BME280;2876;51.738;10.050;2024-01-07T23:04:59;100294.22;;;-1.32;92.58
5703;BME280;2876;51.738;10.050;2024-01-07T23:11:03;100298.03;;;-1.23;92.99
5703;BME280;2876;51.738;10.050;2024-01-07T23:17:06;100304.31;;;-1.39;93.05
5703;BME280;2876;51.738;10.050;2024-01-07T23:23:11;100308.78;;;-1.26;92.76
5703;BME280;2876;51.738;10.050;2024-01-07T23:29:13;100303.13;;;-1.20;93.59
5703;BME280;2876;51.738;10.050;2024-01-07T23:35:15;100306.41;;;-1.17;93.37
5703;BME280;2876;51.738;10.050;2024-01-07T23:41:18;100306.00;;;-1.38;93.87
5703;BME280;2876;51.738;10.050;2024-01-07T23:47:20;100304.25;;;-1.24;93.58
5703;BME280;2876;51.738;10.050;2024-01-07T23:53:22;100302.03;;;-1.31;93.48
5703;BME280;2876;51.738;10.050;2024-01-07T23:59:25;100292.53;;;-1.33;94.35
